Wilmington, OH

4:01 PM EDT on July 27, 2016 (GMT -0400)
2.2 N Wilmington | | Change Station

Elev 1053 ft 39.47 °N, 83.84 °W | Updated 8 seconds ago

Partly Cloudy
Partly Cloudy
88.5 °F
Feels Like 94 °F
N
4.0
Wind Variable Wind from WNW
Gusts 8.0 mph

Today
High -- | Low -- °F
--% Chance of Precip.
Yesterday
High -- | Low -- °F
Precip. -- in
Pressure 29.93 in
Visibility 10.0 miles
Clouds Few 4600 ft
Heat Index 94 °F
Dew Point 70 °F
Humidity 55%
Rainfall 0.00 in
Snow Depth Not available.
6:31 AM 8:52 PM
Last Quarter, 40% visible
METAR KILN 271954Z AUTO 27007KT 230V290 10SM FEW046 32/20 A2998 RMK AO2 SLP135 T03220200
Pressure 29.93 in
Visibility 10.0 miles
Clouds Few 4600 ft
Heat Index 94 °F
Dew Point 70 °F
Humidity 55%
Rainfall 0.00 in
Snow Depth Not available.
6:31 AM 8:52 PM
Last Quarter, 40% visible
METAR KILN 271954Z AUTO 27007KT 230V290 10SM FEW046 32/20 A2998 RMK AO2 SLP135 T03220200

10-Day Weather Forecast

Almanac

Astronomy

Jul. 27, 2016 Rise Set
Actual Time
Civil Twilight
Nautical Twilight
Astronomical Twilight
Moon
Length of Visible Light
Length of Day
Tomorrow will be .
, % of the Moon is Illuminated

Today's Extremes

State Highs State Lows

Community

WunderPhotos

Upload Photos

1,927,931 photos uploaded!

WunderBlog® & News

Nearby

Air Quality

  Air Quality AQ Index Pollutant
Not available.

Snow Depth

Station Depth Elevation

Earthquake Activity

City Distance Mag. Time & Date
Minimum magnitude displayed is 2.5.

Coastal Water Temperatures

Place Temperature

Stations

Nearby Weather Stations

Station Location Temp. Windchill Dew Point Humidity Wind Precip. Elev Updated Type
                   

Watches & Warnings

There are currently no watches in effect.